Time;durP1;ratioP1;P1;durP2;ratioP2;P2;SDS_P1;SDS_P2;PMS_P1;PMS_P2;Temp;Humidity;BMP_temperature;BMP_pressure;BME280_temperature;BME280_humidity;BME280_pressure;Samples;Min_cycle;Max_cycle;Signal;HPM_P1;HPM_P2
2021/11/05 00:00:44;;;;;;;20.00;14.37;;;;;;;7.65;90.92;100379.81;5063990;28;20204;-73
2021/11/05 00:03:11;;;;;;;21.87;14.67;;;;;;;7.65;90.87;100376.31;5067104;28;20204;-73
2021/11/05 00:05:37;;;;;;;22.20;14.57;;;;;;;7.65;91.42;100378.97;5060161;28;20662;-73
2021/11/05 00:08:07;;;;;;;18.87;13.50;;;;;;;7.65;91.27;100382.47;5086985;22;20238;-74
2021/11/05 00:10:34;;;;;;;17.23;13.07;;;;;;;7.65;91.06;100381.59;5021406;28;20690;-71
2021/11/05 00:13:01;;;;;;;20.47;14.23;;;;;;;7.64;90.54;100388.69;5025937;28;20210;-72
2021/11/05 00:15:28;;;;;;;17.57;13.50;;;;;;;7.64;90.68;100388.69;5026911;28;20207;-73
2021/11/05 00:17:56;;;;;;;21.30;13.40;;;;;;;7.65;90.49;100400.16;5018216;28;20775;-73
2021/11/05 00:20:22;;;;;;;19.60;13.20;;;;;;;7.64;90.76;100404.59;5024495;28;20584;-73
2021/11/05 00:22:49;;;;;;;17.53;13.67;;;;;;;7.64;90.72;100409.03;5025250;28;20213;-73
2021/11/05 00:25:15;;;;;;;22.47;13.63;;;;;;;7.63;91.20;100396.72;5028208;28;20212;-73
2021/11/05 00:27:42;;;;;;;17.93;13.50;;;;;;;7.63;90.57;100408.19;5020002;28;20209;-74
2021/11/05 00:30:12;;;;;;;18.13;13.00;;;;;;;7.63;90.77;100407.34;5023529;28;20210;-73
2021/11/05 00:32:39;;;;;;;19.93;13.63;;;;;;;7.63;90.83;100410.84;5022452;28;20207;-73
2021/11/05 00:35:08;;;;;;;17.37;13.53;;;;;;;7.62;90.72;100411.78;5017786;28;20206;-73
2021/11/05 00:37:35;;;;;;;16.67;12.60;;;;;;;7.64;90.79;100415.22;5027986;28;20529;-73
2021/11/05 00:40:01;;;;;;;22.43;14.10;;;;;;;7.65;90.88;100424.00;5029786;28;20321;-74
2021/11/05 00:42:28;;;;;;;20.13;14.63;;;;;;;7.65;90.97;100422.22;5025126;28;20217;-74
2021/11/05 00:44:54;;;;;;;22.67;14.20;;;;;;;7.64;90.78;100428.47;5022115;28;20253;-73
2021/11/05 00:47:21;;;;;;;23.23;14.60;;;;;;;7.65;90.42;100424.00;5030272;28;20205;-73
2021/11/05 00:49:47;;;;;;;22.53;14.83;;;;;;;7.64;91.30;100436.41;5019530;28;20234;-73
2021/11/05 00:52:15;;;;;;;21.40;14.67;;;;;;;7.64;91.32;100425.81;5027086;28;20737;-74
2021/11/05 00:54:42;;;;;;;23.03;15.13;;;;;;;7.64;91.09;100432.91;5027050;28;20203;-73
2021/11/05 00:57:08;;;;;;;21.73;15.73;;;;;;;7.63;90.58;100432.03;5017351;28;20228;-74
2021/11/05 00:59:35;;;;;;;21.03;14.83;;;;;;;7.63;90.67;100434.69;5020182;28;20222;-73
2021/11/05 01:02:01;;;;;;;20.93;15.67;;;;;;;7.63;90.81;100434.69;5028188;28;20592;-73
2021/11/05 01:04:28;;;;;;;23.53;16.23;;;;;;;7.63;90.84;100449.75;5029044;28;20202;-73
2021/11/05 01:06:54;;;;;;;22.80;15.37;;;;;;;7.63;90.87;100447.94;5018262;28;20234;-74
2021/11/05 01:09:22;;;;;;;27.10;16.37;;;;;;;7.62;90.66;100448.03;5023679;28;20615;-74
2021/11/05 01:11:49;;;;;;;23.40;15.93;;;;;;;7.61;91.11;100451.63;5019844;28;20222;-74
2021/11/05 01:14:15;;;;;;;22.87;15.97;;;;;;;7.60;90.94;100453.41;5027764;28;20206;-72
2021/11/05 01:16:42;;;;;;;28.63;17.60;;;;;;;7.59;91.09;100459.66;5028991;28;20230;-73
2021/11/05 01:19:08;;;;;;;22.60;16.20;;;;;;;7.59;90.61;100464.94;5021704;28;20238;-73
2021/11/05 01:21:35;;;;;;;21.30;15.63;;;;;;;7.60;90.67;100471.09;5031132;28;20209;-73
2021/11/05 01:24:02;;;;;;;24.63;16.23;;;;;;;7.58;91.02;100472.97;5026302;28;20616;-73
2021/11/05 01:26:30;;;;;;;25.57;15.97;;;;;;;7.59;90.64;100464.09;5029597;28;20246;-73
2021/11/05 01:28:56;;;;;;;28.03;15.73;;;;;;;7.59;91.01;100474.69;5027500;28;20325;-74
2021/11/05 01:31:23;;;;;;;24.60;16.50;;;;;;;7.58;91.53;100479.13;5020379;28;20203;-73
2021/11/05 01:33:50;;;;;;;24.30;16.93;;;;;;;7.56;91.20;100475.72;5019408;28;20221;-73
2021/11/05 01:36:17;;;;;;;26.57;17.80;;;;;;;7.57;91.11;100487.16;5024232;28;20722;-73
2021/11/05 01:38:44;;;;;;;23.40;16.47;;;;;;;7.55;90.96;100489.91;5025816;28;20248;-73
2021/11/05 01:41:11;;;;;;;27.77;17.03;;;;;;;7.56;91.10;100496.06;5028397;28;20218;-74
2021/11/05 01:43:38;;;;;;;27.13;17.33;;;;;;;7.56;90.83;100498.69;5024251;28;20212;-73
2021/11/05 01:46:08;;;;;;;25.83;16.50;;;;;;;7.57;90.87;100497.75;5029570;28;20206;-73
2021/11/05 01:48:35;;;;;;;27.23;17.53;;;;;;;7.56;91.42;100506.66;5026265;28;20257;-73
2021/11/05 01:51:02;;;;;;;26.73;16.93;;;;;;;7.56;91.35;100507.50;5017566;28;20217;-73
2021/11/05 01:53:28;;;;;;;30.83;17.90;;;;;;;7.55;90.97;100513.75;5023140;28;20203;-73
2021/11/05 01:55:55;;;;;;;29.47;16.63;;;;;;;7.56;91.36;100507.50;5019319;28;20210;-73
2021/11/05 01:58:24;;;;;;;28.97;17.43;;;;;;;7.55;91.63;100504.94;5032452;28;20241;-73
2021/11/05 02:00:52;;;;;;;28.50;17.27;;;;;;;7.56;91.58;100514.59;5015359;28;20217;-73
2021/11/05 02:03:18;;;;;;;27.00;17.07;;;;;;;7.57;91.63;100511.03;5019034;28;20214;-73
2021/11/05 02:05:47;;;;;;;26.90;17.57;;;;;;;7.57;91.48;100514.53;5027537;28;20210;-73
2021/11/05 02:08:13;;;;;;;27.27;17.20;;;;;;;7.56;91.36;100518.13;5025164;28;20304;-73
2021/11/05 02:10:40;;;;;;;24.53;17.13;;;;;;;7.56;91.95;100518.13;5019339;28;20211;-73
2021/11/05 02:13:07;;;;;;;25.57;16.47;;;;;;;7.58;91.43;100526.84;5011763;28;20664;-73
2021/11/05 02:15:33;;;;;;;27.00;17.00;;;;;;;7.60;92.18;100540.00;5025699;28;20225;-73
2021/11/05 02:18:02;;;;;;;24.07;16.43;;;;;;;7.58;91.39;100529.50;5030054;28;20723;-73
2021/11/05 02:20:29;;;;;;;27.00;17.07;;;;;;;7.58;91.88;100540.09;5023683;28;20210;-73
2021/11/05 02:22:57;;;;;;;23.87;16.03;;;;;;;7.59;92.13;100538.31;5031580;28;20206;-73
2021/11/05 02:25:24;;;;;;;27.27;16.63;;;;;;;7.59;91.46;100546.25;5026784;28;20210;-73
2021/11/05 02:27:53;;;;;;;26.30;17.70;;;;;;;7.59;91.53;100541.81;5029151;28;20248;-73
2021/11/05 02:30:20;;;;;;;32.93;17.30;;;;;;;7.58;91.77;100555.13;5031720;28;20245;-72
2021/11/05 02:32:47;;;;;;;27.37;17.83;;;;;;;7.59;91.72;100562.16;5032081;28;20216;-73
2021/11/05 02:35:15;;;;;;;28.63;17.53;;;;;;;7.57;91.27;100562.22;5031435;28;20682;-73
2021/11/05 02:37:42;;;;;;;23.73;16.30;;;;;;;7.57;91.45;100567.53;5029208;28;20223;-72
2021/11/05 02:40:12;;;;;;;30.70;17.10;;;;;;;7.56;91.67;100579.06;5022109;28;20211;-73
2021/11/05 02:42:39;;;;;;;25.47;17.37;;;;;;;7.57;91.19;100585.22;5013242;28;20214;-73
2021/11/05 02:45:07;;;;;;;25.50;16.53;;;;;;;7.57;91.68;100574.63;5031184;28;20202;-72
2021/11/05 02:47:33;;;;;;;28.40;17.10;;;;;;;7.57;91.70;100586.09;5030182;28;20209;-73
2021/11/05 02:50:01;;;;;;;28.73;17.37;;;;;;;7.58;92.14;100584.28;5030585;28;20233;-73
2021/11/05 02:52:28;;;;;;;29.97;17.03;;;;;;;7.59;92.13;100591.31;5025480;28;20210;-73
2021/11/05 02:54:55;;;;;;;27.97;17.90;;;;;;;7.58;91.28;100595.75;5023804;28;20210;-73
2021/11/05 02:57:23;;;;;;;31.10;17.93;;;;;;;7.58;91.97;100586.94;5019620;28;20229;-73
2021/11/05 02:59:49;;;;;;;25.90;17.03;;;;;;;7.57;91.83;100591.38;5027763;28;20226;-73
2021/11/05 03:02:16;;;;;;;28.50;17.33;;;;;;;7.57;92.00;100601.13;5028749;28;20202;-73
2021/11/05 03:04:42;;;;;;;31.10;17.80;;;;;;;7.57;91.40;100607.28;5027918;28;20237;-73
2021/11/05 03:07:10;;;;;;;30.20;18.47;;;;;;;7.57;91.83;100603.78;5020872;28;20691;-73
2021/11/05 03:09:38;;;;;;;28.43;18.10;;;;;;;7.57;91.60;100607.28;5021870;28;20238;-73
2021/11/05 03:12:07;;;;;;;30.37;18.07;;;;;;;7.57;91.52;100603.78;5025451;28;20206;-72
2021/11/05 03:14:36;;;;;;;26.57;17.77;;;;;;;7.58;92.03;100614.31;5014155;28;20211;-73
2021/11/05 03:17:03;;;;;;;32.27;17.23;;;;;;;7.57;92.11;100612.59;5017887;28;20585;-73
2021/11/05 03:19:30;;;;;;;31.70;18.10;;;;;;;7.57;91.95;100617.88;5025628;28;20233;-73
2021/11/05 03:21:56;;;;;;;31.17;18.70;;;;;;;7.56;91.55;100613.53;5030845;28;20209;-73
2021/11/05 03:24:23;;;;;;;33.63;19.13;;;;;;;7.56;91.55;100616.16;5028870;28;20208;-73
2021/11/05 03:26:50;;;;;;;28.40;17.87;;;;;;;7.56;91.76;100623.25;5029815;28;20659;-74
2021/11/05 03:29:17;;;;;;;34.77;19.50;;;;;;;7.56;92.01;100629.41;5020512;28;20218;-73
2021/11/05 03:31:45;;;;;;;31.13;18.40;;;;;;;7.54;91.58;100631.28;5023236;28;20203;-73
2021/11/05 03:34:11;;;;;;;36.10;20.23;;;;;;;7.53;92.13;100632.22;5029551;28;20221;-73
2021/11/05 03:36:38;;;;;;;35.83;20.17;;;;;;;7.52;91.30;100627.03;5030314;28;20679;-73
2021/11/05 03:39:06;;;;;;;35.57;20.60;;;;;;;7.50;91.35;100629.75;5026610;28;20226;-73
2021/11/05 03:41:33;;;;;;;39.70;20.30;;;;;;;7.49;91.58;100635.13;5028381;28;20683;-73
2021/11/05 03:44:00;;;;;;;40.37;20.90;;;;;;;7.46;91.55;100641.44;5030344;28;20584;-73
2021/11/05 03:46:27;;;;;;;37.80;20.77;;;;;;;7.45;92.00;100647.66;5015375;28;20220;-73
2021/11/05 03:48:55;;;;;;;38.93;21.47;;;;;;;7.44;91.47;100650.41;5030152;28;20691;-73
2021/11/05 03:51:22;;;;;;;38.27;20.50;;;;;;;7.42;91.49;100650.47;5029425;28;20214;-73
2021/11/05 03:53:49;;;;;;;37.20;19.43;;;;;;;7.41;91.48;100655.84;5030463;28;20206;-73
2021/11/05 03:56:16;;;;;;;40.13;19.63;;;;;;;7.39;91.05;100647.97;5011291;28;20222;-73
2021/11/05 03:58:43;;;;;;;41.77;21.10;;;;;;;7.37;91.17;100657.78;5028999;28;20314;-73
2021/11/05 04:01:09;;;;;;;38.97;20.37;;;;;;;7.35;91.21;100664.94;5023544;28;20205;-73
2021/11/05 04:03:36;;;;;;;35.17;18.77;;;;;;;7.35;91.52;100664.94;5029244;28;20216;-73
2021/11/05 04:06:04;;;;;;;38.37;19.33;;;;;;;7.34;91.50;100673.84;5019863;28;20545;-73
2021/11/05 04:08:31;;;;;;;37.83;19.63;;;;;;;7.33;91.08;100672.13;5023090;28;20631;-73
2021/11/05 04:10:59;;;;;;;38.97;20.07;;;;;;;7.33;90.97;100677.44;5018763;28;20673;-73
2021/11/05 04:13:26;;;;;;;41.07;19.37;;;;;;;7.31;91.54;100682.81;5024217;28;20211;-73
2021/11/05 04:15:54;;;;;;;38.77;19.37;;;;;;;7.31;91.44;100688.09;5031758;28;20221;-73
2021/11/05 04:18:20;;;;;;;35.50;19.13;;;;;;;7.31;91.43;100697.84;5030985;28;20229;-73
2021/11/05 04:20:47;;;;;;;35.33;18.70;;;;;;;7.30;91.59;100704.94;5033757;28;20209;-73
2021/11/05 04:23:17;;;;;;;38.97;20.30;;;;;;;7.31;91.53;100697.84;5023716;28;20207;-73
2021/11/05 04:25:45;;;;;;;33.40;18.50;;;;;;;7.29;91.16;100711.16;5028873;28;20206;-73
2021/11/05 04:28:11;;;;;;;34.80;19.13;;;;;;;7.29;92.05;100710.31;5033619;28;20226;-73
2021/11/05 04:30:38;;;;;;;40.30;20.17;;;;;;;7.28;92.08;100712.09;5032930;28;20213;-73
2021/11/05 04:33:05;;;;;;;38.70;20.73;;;;;;;7.28;91.48;100719.19;5031850;28;20206;-73
2021/11/05 04:35:31;;;;;;;35.83;19.70;;;;;;;7.29;91.89;100721.75;5029510;28;20206;-73
2021/11/05 04:37:58;;;;;;;37.67;18.80;;;;;;;7.29;91.88;100726.19;5026784;28;20237;-73
2021/11/05 04:40:26;;;;;;;34.87;18.73;;;;;;;7.30;91.72;100733.22;5032679;28;20236;-73
2021/11/05 04:42:53;;;;;;;32.10;19.17;;;;;;;7.28;92.14;100730.66;5018813;28;20671;-73
2021/11/05 04:45:19;;;;;;;36.70;19.87;;;;;;;7.28;91.19;100733.28;5029179;28;20282;-73
2021/11/05 04:47:46;;;;;;;33.43;19.93;;;;;;;7.28;92.01;100741.25;5030573;28;20206;-73
2021/11/05 04:50:12;;;;;;;31.47;18.20;;;;;;;7.28;91.51;100735.09;5025863;28;20222;-74
2021/11/05 04:52:39;;;;;;;36.07;18.37;;;;;;;7.28;92.09;100740.38;5016894;28;20214;-73
2021/11/05 04:55:07;;;;;;;30.33;17.63;;;;;;;7.28;91.80;100746.53;5023864;28;20290;-73
2021/11/05 04:57:35;;;;;;;33.37;18.73;;;;;;;7.26;91.73;100743.09;5023421;28;20230;-73
2021/11/05 05:00:01;;;;;;;33.10;17.30;;;;;;;7.26;91.21;100752.84;5017743;28;20230;-73
2021/11/05 05:02:28;;;;;;;33.33;17.70;;;;;;;7.27;91.95;100751.91;5020668;28;20214;-73
2021/11/05 05:04:55;;;;;;;37.53;19.10;;;;;;;7.27;91.94;100755.41;5023115;28;20586;-73
2021/11/05 05:07:21;;;;;;;32.23;19.47;;;;;;;7.26;91.76;100769.59;5023293;28;20203;-73
2021/11/05 05:09:48;;;;;;;38.17;19.40;;;;;;;7.26;91.76;100766.09;5027046;28;20234;-73
2021/11/05 05:12:14;;;;;;;36.13;18.97;;;;;;;7.26;92.04;100774.88;5027135;28;20587;-73
2021/11/05 05:14:42;;;;;;;32.37;17.87;;;;;;;7.28;91.62;100780.13;5016515;28;20657;-73
2021/11/05 05:17:09;;;;;;;35.90;19.47;;;;;;;7.28;91.59;100782.75;5025462;28;20660;-73
2021/11/05 05:19:35;;;;;;;36.47;19.23;;;;;;;7.26;91.49;100780.19;5030964;28;20234;-73
2021/11/05 05:22:02;;;;;;;36.83;19.07;;;;;;;7.26;91.61;100785.47;5017259;28;20614;-73
2021/11/05 05:24:29;;;;;;;36.60;18.60;;;;;;;7.27;91.67;100794.28;5024427;28;20203;-73
2021/11/05 05:26:55;;;;;;;36.23;18.57;;;;;;;7.26;91.49;100790.78;5029808;28;20202;-73
2021/11/05 05:29:22;;;;;;;34.20;18.67;;;;;;;7.27;91.39;100796.94;5023309;28;20222;-73
2021/11/05 05:31:51;;;;;;;35.80;19.80;;;;;;;7.25;91.58;100799.66;5015988;28;20253;-73
2021/11/05 05:34:18;;;;;;;37.17;18.90;;;;;;;7.25;91.47;100809.41;5020580;28;20687;-73
2021/11/05 05:36:44;;;;;;;37.03;18.07;;;;;;;7.23;91.80;100808.59;5018329;28;20210;-73
2021/11/05 05:39:11;;;;;;;33.03;17.50;;;;;;;7.23;91.91;100814.75;5020945;28;20222;-73
2021/11/05 05:41:38;;;;;;;31.87;18.07;;;;;;;7.22;91.38;100818.34;5023985;28;20202;-73
2021/11/05 05:44:05;;;;;;;32.97;18.27;;;;;;;7.22;91.32;100823.63;5024058;28;20206;-73
2021/11/05 05:46:32;;;;;;;33.80;18.77;;;;;;;7.22;91.21;100833.38;5025060;28;20199;-73
2021/11/05 05:49:00;;;;;;;31.10;17.23;;;;;;;7.20;91.56;100825.50;5026015;28;20218;-73
2021/11/05 05:51:30;;;;;;;34.93;17.83;;;;;;;7.21;91.44;100836.94;5022559;28;20699;-72
2021/11/05 05:53:57;;;;;;;30.43;17.73;;;;;;;7.20;91.57;100841.38;5025106;28;20206;-73
2021/11/05 05:56:23;;;;;;;30.20;16.23;;;;;;;7.20;90.96;100844.03;5016682;28;20656;-72
2021/11/05 05:58:50;;;;;;;31.63;17.37;;;;;;;7.19;91.53;100842.31;5018794;28;20254;-72
2021/11/05 06:01:17;;;;;;;31.27;17.23;;;;;;;7.19;91.62;100842.31;5021361;28;20215;-71
2021/11/05 06:03:44;;;;;;;28.40;16.73;;;;;;;7.19;91.83;100841.47;5019804;28;20202;-73
2021/11/05 06:06:12;;;;;;;30.30;16.00;;;;;;;7.20;91.60;100854.63;5022931;28;20281;-73
2021/11/05 06:08:40;;;;;;;33.67;17.57;;;;;;;7.20;91.54;100853.78;5039012;22;21192;-71
2021/11/05 06:11:06;;;;;;;28.53;15.50;;;;;;;7.18;91.34;100853.84;5040392;28;20208;-71
2021/11/05 06:13:33;;;;;;;30.53;16.23;;;;;;;7.18;90.81;100864.44;5037649;28;20206;-70
2021/11/05 06:15:59;;;;;;;34.83;16.87;;;;;;;7.15;91.24;100861.09;5037613;28;20210;-71
2021/11/05 06:18:26;;;;;;;30.70;16.27;;;;;;;7.16;91.50;100870.75;5046357;28;20225;-71
2021/11/05 06:20:52;;;;;;;28.50;16.13;;;;;;;7.18;91.30;100876.81;5038410;28;20221;-71
2021/11/05 06:23:20;;;;;;;34.70;17.20;;;;;;;7.17;91.33;100868.00;5034150;28;20221;-71
2021/11/05 06:25:47;;;;;;;28.20;15.87;;;;;;;7.18;91.22;100871.53;5038962;28;20214;-71
2021/11/05 06:28:14;;;;;;;30.00;16.80;;;;;;;7.18;91.44;100877.69;5036915;28;20198;-71
2021/11/05 06:30:40;;;;;;;28.77;16.20;;;;;;;7.19;91.04;100886.50;5040982;28;20206;-70
2021/11/05 06:33:07;;;;;;;31.03;17.17;;;;;;;7.19;91.07;100892.66;5042807;28;20551;-72
2021/11/05 06:35:33;;;;;;;28.57;15.70;;;;;;;7.21;91.57;100898.75;5045959;28;20233;-72
2021/11/05 06:38:00;;;;;;;32.00;16.27;;;;;;;7.21;91.66;100897.88;5031388;28;20234;-72
2021/11/05 06:40:28;;;;;;;31.40;17.03;;;;;;;7.21;91.55;100901.38;5037309;28;20231;-72
2021/11/05 06:42:54;;;;;;;32.40;17.27;;;;;;;7.23;91.21;100918.06;5048570;28;20214;-72
2021/11/05 06:45:21;;;;;;;33.43;17.63;;;;;;;7.23;91.00;100911.91;5040345;28;20217;-71
2021/11/05 06:47:48;;;;;;;32.47;16.77;;;;;;;7.25;91.59;100920.66;5035927;28;20296;-71
2021/11/05 06:50:14;;;;;;;36.17;17.63;;;;;;;7.24;91.37;100918.94;5044460;28;20229;-71
2021/11/05 06:52:41;;;;;;;34.30;17.53;;;;;;;7.26;91.20;100927.69;5047773;28;20205;-71
2021/11/05 06:55:08;;;;;;;39.03;18.63;;;;;;;7.28;91.63;100925.81;5049949;28;20224;-71
2021/11/05 06:57:36;;;;;;;30.83;16.40;;;;;;;7.29;91.46;100930.19;5047785;28;20215;-71
2021/11/05 07:00:05;;;;;;;32.17;17.27;;;;;;;7.30;90.96;100937.22;5035740;28;20245;-72
2021/11/05 07:02:32;;;;;;;32.53;17.57;;;;;;;7.31;91.38;100938.94;5038365;28;20587;-71
2021/11/05 07:04:59;;;;;;;38.87;18.03;;;;;;;7.31;91.21;100941.59;5032893;28;20264;-72
2021/11/05 07:07:26;;;;;;;32.10;17.93;;;;;;;7.32;91.47;100938.88;5043656;28;20210;-70
2021/11/05 07:09:52;;;;;;;32.37;17.47;;;;;;;7.33;91.42;100947.69;5045814;28;20611;-70
2021/11/05 07:12:19;;;;;;;36.40;18.57;;;;;;;7.32;91.75;100951.25;5032588;28;20198;-71
2021/11/05 07:14:47;;;;;;;31.47;17.40;;;;;;;7.33;91.70;100950.31;5028534;28;20601;-71
2021/11/05 07:17:13;;;;;;;34.87;17.33;;;;;;;7.35;91.36;100953.75;5035527;28;20225;-69
2021/11/05 07:19:40;;;;;;;38.13;17.93;;;;;;;7.36;91.59;100968.72;5048053;28;20240;-71
2021/11/05 07:22:06;;;;;;;34.17;17.67;;;;;;;7.36;91.67;100971.34;5047156;28;20209;-71
2021/11/05 07:24:36;;;;;;;35.30;17.47;;;;;;;7.39;91.64;100986.25;5048494;28;20259;-72
2021/11/05 07:27:04;;;;;;;31.30;17.00;;;;;;;7.41;91.65;100989.72;5047044;28;20223;-71
2021/11/05 07:29:31;;;;;;;36.43;18.37;;;;;;;7.44;91.71;100989.56;5039585;28;20444;-71
2021/11/05 07:32:02;;;;;;;34.63;17.43;;;;;;;7.45;91.80;100994.81;5047780;28;20201;-71
2021/11/05 07:34:32;;;;;;;34.40;17.23;;;;;;;7.48;91.41;101007.94;5039519;28;20201;-71
2021/11/05 07:36:59;;;;;;;32.13;17.03;;;;;;;7.49;91.84;101007.00;5050752;28;20209;-72
2021/11/05 07:39:25;;;;;;;31.10;17.17;;;;;;;7.52;91.65;101008.66;5044473;28;20226;-71
2021/11/05 07:41:52;;;;;;;30.97;15.87;;;;;;;7.53;91.50;101016.50;5041343;28;20214;-72
2021/11/05 07:44:19;;;;;;;28.40;16.13;;;;;;;7.53;92.33;101013.88;5043228;28;20198;-72
2021/11/05 07:46:47;;;;;;;30.30;15.57;;;;;;;7.53;92.04;101023.59;5047671;28;20209;-71
2021/11/05 07:49:15;;;;;;;30.03;16.40;;;;;;;7.54;91.59;101026.19;5044192;28;20228;-71
2021/11/05 07:51:42;;;;;;;31.50;16.97;;;;;;;7.55;92.16;101022.59;5049672;28;20209;-71
2021/11/05 07:54:09;;;;;;;31.17;17.13;;;;;;;7.55;92.34;101037.66;5046326;28;20202;-71
2021/11/05 07:56:36;;;;;;;35.00;17.23;;;;;;;7.55;92.02;101041.16;5044802;28;20206;-72
2021/11/05 07:59:04;;;;;;;30.93;17.60;;;;;;;7.56;91.63;101042.88;5038752;28;20225;-72
2021/11/05 08:01:31;;;;;;;30.00;16.83;;;;;;;7.58;91.92;101050.78;5049593;28;20221;-71
2021/11/05 08:03:58;;;;;;;30.27;15.57;;;;;;;7.59;91.80;101050.72;5050244;28;20693;-71
2021/11/05 08:06:26;;;;;;;32.87;17.47;;;;;;;7.61;91.61;101063.91;5040011;28;20327;-72
2021/11/05 08:08:52;;;;;;;33.43;16.73;;;;;;;7.61;91.69;101062.09;5032068;28;20233;-71
2021/11/05 08:11:19;;;;;;;33.00;16.90;;;;;;;7.62;91.77;101063.81;5033606;28;20217;-71
2021/11/05 08:13:45;;;;;;;35.23;17.43;;;;;;;7.64;92.06;101072.56;5045922;28;20312;-72
2021/11/05 08:16:12;;;;;;;31.00;16.67;;;;;;;7.66;91.98;101069.84;5046200;28;20215;-72
2021/11/05 08:18:39;;;;;;;28.80;16.97;;;;;;;7.68;92.30;101075.09;5044959;28;20687;-72
2021/11/05 08:21:05;;;;;;;31.23;16.80;;;;;;;7.69;91.69;101075.03;5040349;28;20674;-71
2021/11/05 08:23:33;;;;;;;32.70;16.53;;;;;;;7.71;91.77;101086.41;5047012;28;20613;-72
2021/11/05 08:26:00;;;;;;;30.83;15.87;;;;;;;7.74;91.50;101091.56;5042075;28;20225;-70
2021/11/05 08:28:26;;;;;;;30.00;16.50;;;;;;;7.75;92.00;101095.94;5044257;28;20201;-69
2021/11/05 08:30:55;;;;;;;28.57;15.70;;;;;;;7.77;91.66;101093.22;5043759;28;20225;-70
2021/11/05 08:33:22;;;;;;;28.47;15.67;;;;;;;7.78;91.98;101098.47;5043322;28;20283;-70
2021/11/05 08:35:52;;;;;;;28.90;15.83;;;;;;;7.81;91.68;101102.78;5046449;28;20217;-71
2021/11/05 08:38:20;;;;;;;28.30;15.93;;;;;;;7.82;91.88;101105.38;5046694;28;20203;-71
2021/11/05 08:40:50;;;;;;;26.77;15.43;;;;;;;7.84;92.55;101107.94;5042039;28;20198;-72
2021/11/05 08:43:19;;;;;;;24.10;15.10;;;;;;;7.86;91.84;101100.78;5042278;28;20209;-72
2021/11/05 08:45:46;;;;;;;25.90;14.97;;;;;;;7.87;92.48;101111.34;5043188;28;20209;-72
2021/11/05 08:48:13;;;;;;;25.67;15.57;;;;;;;7.89;92.51;101119.19;5044038;28;20683;-72
2021/11/05 08:50:40;;;;;;;27.60;14.70;;;;;;;7.90;92.67;101118.25;5042672;28;20198;-72
2021/11/05 08:53:07;;;;;;;24.67;14.10;;;;;;;7.94;92.25;101128.66;5041251;28;20656;-71
2021/11/05 08:55:35;;;;;;;26.13;15.10;;;;;;;7.97;92.18;101127.69;5041760;28;20205;-71
2021/11/05 08:58:03;;;;;;;29.87;14.83;;;;;;;7.99;91.95;101123.16;5044385;28;20754;-72
2021/11/05 09:00:32;;;;;;;22.83;12.80;;;;;;;8.00;92.06;101131.06;5042365;28;20238;-71
2021/11/05 09:02:59;;;;;;;20.27;12.03;;;;;;;8.02;91.54;101131.00;5044052;28;20202;-72
2021/11/05 09:05:26;;;;;;;21.40;12.47;;;;;;;8.05;92.07;101127.34;5040525;28;20217;-69
2021/11/05 09:07:52;;;;;;;21.63;11.13;;;;;;;8.07;92.83;101136.94;5045728;28;20677;-71
2021/11/05 09:10:19;;;;;;;20.40;11.83;;;;;;;8.08;92.16;101140.44;5045390;28;20699;-71
2021/11/05 09:12:46;;;;;;;18.20;11.53;;;;;;;8.08;92.51;101138.66;5048187;28;20203;-73
2021/11/05 09:15:18;;;;;;;19.07;11.87;;;;;;;8.12;92.28;101145.53;5048151;28;20202;-72
2021/11/05 09:17:45;;;;;;;20.00;12.10;;;;;;;8.14;91.86;101148.13;5050990;28;20208;-70
2021/11/05 09:20:14;;;;;;;16.77;10.97;;;;;;;8.12;91.84;101153.50;5048878;28;20237;-72
2021/11/05 09:22:41;;;;;;;18.03;10.90;;;;;;;8.16;92.27;101151.59;5044725;28;20592;-73
2021/11/05 09:25:08;;;;;;;19.70;11.37;;;;;;;8.19;91.86;101154.09;5045542;28;20201;-71
2021/11/05 09:27:36;;;;;;;19.67;12.10;;;;;;;8.22;92.10;101167.25;5041735;28;20209;-72
2021/11/05 09:30:04;;;;;;;17.53;10.27;;;;;;;8.23;91.63;101169.81;5042307;28;20218;-72
2021/11/05 09:32:32;;;;;;;17.47;9.90;;;;;;;8.28;91.78;101170.44;5040795;28;20206;-72
2021/11/05 09:34:59;;;;;;;14.50;9.27;;;;;;;8.35;91.65;101177.25;5046372;28;20213;-73
2021/11/05 09:37:25;;;;;;;16.53;9.63;;;;;;;8.45;92.74;101176.81;5041607;28;20206;-73
2021/11/05 09:39:52;;;;;;;13.20;9.10;;;;;;;8.56;92.39;101182.50;5046648;28;20230;-73
2021/11/05 09:42:19;;;;;;;15.67;9.27;;;;;;;8.67;92.96;101185.50;5041775;28;20206;-71
2021/11/05 09:44:46;;;;;;;14.63;8.43;;;;;;;8.76;92.15;101181.56;5038738;28;20209;-70
2021/11/05 09:47:14;;;;;;;9.93;6.90;;;;;;;8.82;91.86;101186.56;5046947;28;20212;-71
2021/11/05 09:49:43;;;;;;;9.73;6.07;;;;;;;8.87;92.16;101197.84;5039197;28;20226;-70
2021/11/05 09:52:10;;;;;;;8.60;5.90;;;;;;;8.89;91.47;101199.50;5038394;28;20202;-70
2021/11/05 09:54:39;;;;;;;8.80;5.53;;;;;;;8.90;90.97;101205.69;5041548;28;20222;-73
2021/11/05 09:57:06;;;;;;;8.90;6.47;;;;;;;8.94;91.18;101202.81;5039868;28;20204;-70
2021/11/05 09:59:33;;;;;;;12.93;7.37;;;;;;;8.99;91.30;101199.91;5039428;28;20230;-71
2021/11/05 10:02:00;;;;;;;9.40;6.50;;;;;;;9.03;90.49;101220.94;5040247;28;20210;-69
2021/11/05 10:04:26;;;;;;;9.30;6.73;;;;;;;9.08;90.72;101230.50;5040629;28;20560;-69
2021/11/05 10:07:03;;;;;;;10.63;7.13;;;;;;;9.10;90.42;101228.63;5045199;28;20247;-71
2021/11/05 10:09:35;;;;;;;10.33;6.90;;;;;;;9.13;89.54;101229.34;5046619;28;20240;-70
2021/11/05 10:12:10;;;;;;;12.97;8.00;;;;;;;9.19;89.89;101228.19;5050777;28;20217;-70
2021/11/05 10:14:37;;;;;;;11.47;7.47;;;;;;;9.27;90.02;101236.66;5037871;28;20209;-70
2021/11/05 10:17:07;;;;;;;10.67;7.90;;;;;;;9.33;89.13;101233.69;5038759;28;20214;-71
2021/11/05 10:19:47;;;;;;;11.00;7.23;;;;;;;9.42;89.10;101238.56;5046353;28;20241;-70
2021/11/05 10:22:46;;;;;;;12.93;7.57;;;;;;;9.50;89.66;101235.50;5040051;28;20197;-70
2021/11/05 10:25:22;;;;;;;12.47;7.87;;;;;;;9.55;89.46;101239.66;5043436;28;20255;-72
2021/11/05 10:28:00;;;;;;;11.67;7.30;;;;;;;9.60;88.74;101245.63;5044569;28;20202;-72
2021/11/05 10:30:27;;;;;;;12.07;7.67;;;;;;;9.63;88.37;101237.50;5045175;28;20225;-72
2021/11/05 10:32:55;;;;;;;13.10;7.70;;;;;;;9.63;88.16;101250.81;5050283;28;20209;-72
2021/11/05 10:35:22;;;;;;;11.03;7.07;;;;;;;9.66;87.70;101242.69;5044760;28;20259;-72
2021/11/05 10:37:53;;;;;;;12.87;8.30;;;;;;;9.73;88.20;101243.22;5045617;28;20645;-73
2021/11/05 10:40:20;;;;;;;12.73;7.77;;;;;;;9.82;88.00;101249.88;5039087;28;20236;-72
2021/11/05 10:42:47;;;;;;;10.53;7.47;;;;;;;9.87;87.20;101245.16;5044286;28;20562;-71
2021/11/05 10:45:15;;;;;;;11.20;7.13;;;;;;;9.92;87.56;101246.66;5042666;28;20262;-70
2021/11/05 10:48:01;;;;;;;11.77;7.87;;;;;;;9.96;87.07;101245.56;5042448;28;20599;-71
2021/11/05 10:50:31;;;;;;;12.70;7.43;;;;;;;9.97;86.55;101249.97;5042832;28;20225;-72
2021/11/05 10:53:08;;;;;;;13.23;6.97;;;;;;;9.96;86.14;101253.56;5040645;28;20237;-72
2021/11/05 10:55:40;;;;;;;9.87;6.20;;;;;;;9.95;85.88;101254.50;5041838;28;20760;-73
2021/11/05 10:58:07;;;;;;;10.90;6.70;;;;;;;9.93;85.48;101258.16;5039878;28;20201;-72
2021/11/05 11:00:36;;;;;;;10.73;7.10;;;;;;;9.92;85.36;101261.75;5044664;28;20687;-72
2021/11/05 11:03:12;;;;;;;11.17;6.63;;;;;;;9.94;85.59;101266.06;5040679;28;20216;-71
2021/11/05 11:05:40;;;;;;;10.60;6.43;;;;;;;9.94;85.60;101275.84;5043323;28;20213;-71
2021/11/05 11:08:19;;;;;;;10.97;7.03;;;;;;;9.92;84.84;101273.25;5045564;28;20205;-74
2021/11/05 11:10:48;;;;;;;10.77;6.67;;;;;;;9.93;84.93;101276.78;5046778;28;20201;-72
2021/11/05 11:13:34;;;;;;;10.20;6.80;;;;;;;9.93;85.18;101287.44;5040581;28;20239;-72
2021/11/05 11:16:01;;;;;;;10.80;5.97;;;;;;;9.88;84.71;101282.34;5040839;28;20201;-70
2021/11/05 11:18:28;;;;;;;8.67;5.97;;;;;;;9.88;84.55;101277.00;5037273;28;20216;-70
2021/11/05 11:20:54;;;;;;;9.33;6.07;;;;;;;9.86;84.48;101286.88;5043701;28;20228;-73